sensor_id;sensor_type;location;lat;lon;timestamp;pressure;altitude;pressure_sealevel;temperature
42673;BMP280;28284;46.514;30.724;2023-09-19T00:00:04;101380.31;;;18.49
42673;BMP280;28284;46.514;30.724;2023-09-19T00:02:31;101385.81;;;18.49
42673;BMP280;28284;46.514;30.724;2023-09-19T00:04:58;101378.00;;;18.47
42673;BMP280;28284;46.514;30.724;2023-09-19T00:07:23;101382.69;;;18.47
42673;BMP280;28284;46.514;30.724;2023-09-19T00:09:48;101378.84;;;18.41
42673;BMP280;28284;46.514;30.724;2023-09-19T00:12:13;101382.31;;;18.45
42673;BMP280;28284;46.514;30.724;2023-09-19T00:14:39;101384.31;;;18.44
42673;BMP280;28284;46.514;30.724;2023-09-19T00:17:05;101379.22;;;18.43
42673;BMP280;28284;46.514;30.724;2023-09-19T00:19:33;101376.09;;;18.41
42673;BMP280;28284;46.514;30.724;2023-09-19T00:21:58;101382.41;;;18.38
42673;BMP280;28284;46.514;30.724;2023-09-19T00:24:24;101383.97;;;18.35
42673;BMP280;28284;46.514;30.724;2023-09-19T00:26:49;101375.75;;;18.35
42673;BMP280;28284;46.514;30.724;2023-09-19T00:29:14;101365.63;;;18.32
42673;BMP280;28284;46.514;30.724;2023-09-19T00:31:44;101366.78;;;18.31
42673;BMP280;28284;46.514;30.724;2023-09-19T00:34:10;101364.06;;;18.31
42673;BMP280;28284;46.514;30.724;2023-09-19T00:36:36;101359.75;;;18.34
42673;BMP280;28284;46.514;30.724;2023-09-19T00:39:03;101364.41;;;18.37
42673;BMP280;28284;46.514;30.724;2023-09-19T00:41:30;101364.78;;;18.39
42673;BMP280;28284;46.514;30.724;2023-09-19T00:43:55;101363.59;;;18.40
42673;BMP280;28284;46.514;30.724;2023-09-19T00:46:21;101360.44;;;18.41
42673;BMP280;28284;46.514;30.724;2023-09-19T00:48:46;101339.38;;;18.31
42673;BMP280;28284;46.514;30.724;2023-09-19T00:51:11;101360.00;;;18.43
42673;BMP280;28284;46.514;30.724;2023-09-19T00:53:38;101360.81;;;18.43
42673;BMP280;28284;46.514;30.724;2023-09-19T00:56:04;101362.75;;;18.43
42673;BMP280;28284;46.514;30.724;2023-09-19T00:58:32;101360.81;;;18.43
42673;BMP280;28284;46.514;30.724;2023-09-19T01:01:00;101359.25;;;18.42
42673;BMP280;28284;46.514;30.724;2023-09-19T01:03:26;101361.19;;;18.42
42673;BMP280;28284;46.514;30.724;2023-09-19T01:05:52;101352.63;;;18.40
42673;BMP280;28284;46.514;30.724;2023-09-19T01:08:17;101357.34;;;18.39
42673;BMP280;28284;46.514;30.724;2023-09-19T01:10:51;101352.63;;;18.36
42673;BMP280;28284;46.514;30.724;2023-09-19T01:18:27;101359.28;;;18.35
42673;BMP280;28284;46.514;30.724;2023-09-19T01:26:26;101361.66;;;18.37
42673;BMP280;28284;46.514;30.724;2023-09-19T01:29:08;101355.38;;;18.36
42673;BMP280;28284;46.514;30.724;2023-09-19T01:31:38;101361.69;;;18.33
42673;BMP280;28284;46.514;30.724;2023-09-19T01:34:05;101360.56;;;18.31
42673;BMP280;28284;46.514;30.724;2023-09-19T01:36:37;101364.88;;;18.28
42673;BMP280;28284;46.514;30.724;2023-09-19T01:39:13;101359.06;;;18.26
42673;BMP280;28284;46.514;30.724;2023-09-19T01:41:47;101365.00;;;18.21
42673;BMP280;28284;46.514;30.724;2023-09-19T01:44:22;101371.28;;;18.18
42673;BMP280;28284;46.514;30.724;2023-09-19T01:46:49;101372.88;;;18.16
42673;BMP280;28284;46.514;30.724;2023-09-19T01:51:50;101364.25;;;18.14
42673;BMP280;28284;46.514;30.724;2023-09-19T01:54:18;101373.75;;;18.09
42673;BMP280;28284;46.514;30.724;2023-09-19T01:56:49;101369.44;;;18.08
42673;BMP280;28284;46.514;30.724;2023-09-19T01:59:16;101366.72;;;18.05
42673;BMP280;28284;46.514;30.724;2023-09-19T02:01:42;101368.28;;;18.06
42673;BMP280;28284;46.514;30.724;2023-09-19T02:04:09;101358.88;;;18.07
42673;BMP280;28284;46.514;30.724;2023-09-19T02:06:35;101357.72;;;18.05
42673;BMP280;28284;46.514;30.724;2023-09-19T02:09:00;101353.47;;;18.04
42673;BMP280;28284;46.514;30.724;2023-09-19T02:11:25;101347.97;;;18.04
42673;BMP280;28284;46.514;30.724;2023-09-19T02:13:51;101347.16;;;18.07
42673;BMP280;28284;46.514;30.724;2023-09-19T02:16:19;101345.97;;;18.08
42673;BMP280;28284;46.514;30.724;2023-09-19T02:18:45;101353.00;;;18.08
42673;BMP280;28284;46.514;30.724;2023-09-19T02:21:11;101351.84;;;18.06
42673;BMP280;28284;46.514;30.724;2023-09-19T02:23:37;101351.06;;;18.06
42673;BMP280;28284;46.514;30.724;2023-09-19T02:26:03;101345.63;;;18.02
42673;BMP280;28284;46.514;30.724;2023-09-19T02:28:31;101352.66;;;18.03
42673;BMP280;28284;46.514;30.724;2023-09-19T02:30:57;101344.84;;;18.02
42673;BMP280;28284;46.514;30.724;2023-09-19T02:33:23;101355.03;;;18.01
42673;BMP280;28284;46.514;30.724;2023-09-19T02:35:48;101349.94;;;18.00
42673;BMP280;28284;46.514;30.724;2023-09-19T02:38:13;101340.59;;;17.97
42673;BMP280;28284;46.514;30.724;2023-09-19T02:40:39;101348.84;;;17.94
42673;BMP280;28284;46.514;30.724;2023-09-19T02:43:05;101348.16;;;17.86
42673;BMP280;28284;46.514;30.724;2023-09-19T02:45:30;101338.81;;;17.80
42673;BMP280;28284;46.514;30.724;2023-09-19T02:47:56;101345.88;;;17.78
42673;BMP280;28284;46.514;30.724;2023-09-19T02:50:22;101334.53;;;17.76
42673;BMP280;28284;46.514;30.724;2023-09-19T02:52:47;101336.50;;;17.75
42673;BMP280;28284;46.514;30.724;2023-09-19T02:55:14;101329.47;;;17.74
42673;BMP280;28284;46.514;30.724;2023-09-19T02:57:45;101332.63;;;17.73
42673;BMP280;28284;46.514;30.724;2023-09-19T03:00:10;101332.63;;;17.73
42673;BMP280;28284;46.514;30.724;2023-09-19T03:02:37;101336.53;;;17.72
42673;BMP280;28284;46.514;30.724;2023-09-19T03:05:03;101343.97;;;17.71
42673;BMP280;28284;46.514;30.724;2023-09-19T03:07:28;101338.13;;;17.69
42673;BMP280;28284;46.514;30.724;2023-09-19T03:09:54;101326.41;;;17.69
42673;BMP280;28284;46.514;30.724;2023-09-19T03:12:20;101339.72;;;17.67
42673;BMP280;28284;46.514;30.724;2023-09-19T03:14:45;101339.72;;;17.67
42673;BMP280;28284;46.514;30.724;2023-09-19T03:17:10;101338.56;;;17.68
42673;BMP280;28284;46.514;30.724;2023-09-19T03:19:36;101342.06;;;17.68
42673;BMP280;28284;46.514;30.724;2023-09-19T03:22:05;101342.84;;;17.69
42673;BMP280;28284;46.514;30.724;2023-09-19T03:24:31;101336.97;;;17.70
42673;BMP280;28284;46.514;30.724;2023-09-19T03:26:57;101327.59;;;17.68
42673;BMP280;28284;46.514;30.724;2023-09-19T03:29:22;101338.94;;;17.70
42673;BMP280;28284;46.514;30.724;2023-09-19T03:31:48;101334.22;;;17.70
42673;BMP280;28284;46.514;30.724;2023-09-19T03:34:13;101338.50;;;17.71
42673;BMP280;28284;46.514;30.724;2023-09-19T03:36:38;101333.00;;;17.71
42673;BMP280;28284;46.514;30.724;2023-09-19T03:39:05;101337.31;;;17.72
42673;BMP280;28284;46.514;30.724;2023-09-19T03:41:31;101335.75;;;17.75
42673;BMP280;28284;46.514;30.724;2023-09-19T03:43:56;101335.63;;;17.85
42673;BMP280;28284;46.514;30.724;2023-09-19T03:46:22;101324.88;;;18.01
42673;BMP280;28284;46.514;30.724;2023-09-19T03:48:47;101333.22;;;18.24
42673;BMP280;28284;46.514;30.724;2023-09-19T03:51:12;101331.25;;;18.54
42673;BMP280;28284;46.514;30.724;2023-09-19T03:53:38;101336.22;;;18.92
42673;BMP280;28284;46.514;30.724;2023-09-19T03:56:03;101344.44;;;19.38
42673;BMP280;28284;46.514;30.724;2023-09-19T03:58:28;101347.44;;;19.89
42673;BMP280;28284;46.514;30.724;2023-09-19T04:00:57;101339.19;;;20.44
42673;BMP280;28284;46.514;30.724;2023-09-19T04:03:23;101353.75;;;20.95
42673;BMP280;28284;46.514;30.724;2023-09-19T04:05:49;101344.88;;;21.48
42673;BMP280;28284;46.514;30.724;2023-09-19T04:08:14;101343.75;;;22.02
42673;BMP280;28284;46.514;30.724;2023-09-19T04:10:43;101343.59;;;22.58
42673;BMP280;28284;46.514;30.724;2023-09-19T04:13:11;101346.81;;;23.15
42673;BMP280;28284;46.514;30.724;2023-09-19T04:15:40;101340.81;;;23.72
42673;BMP280;28284;46.514;30.724;2023-09-19T04:18:06;101345.13;;;24.33
42673;BMP280;28284;46.514;30.724;2023-09-19T04:20:31;101349.63;;;24.97
42673;BMP280;28284;46.514;30.724;2023-09-19T04:22:57;101352.06;;;25.57
42673;BMP280;28284;46.514;30.724;2023-09-19T04:25:22;101349.78;;;26.15
42673;BMP280;28284;46.514;30.724;2023-09-19T04:27:47;101350.66;;;26.76
42673;BMP280;28284;46.514;30.724;2023-09-19T04:30:13;101348.09;;;27.24
42673;BMP280;28284;46.514;30.724;2023-09-19T04:32:39;101355.88;;;27.78
42673;BMP280;28284;46.514;30.724;2023-09-19T04:35:07;101360.50;;;28.29
42673;BMP280;28284;46.514;30.724;2023-09-19T04:37:35;101363.19;;;28.78
42673;BMP280;28284;46.514;30.724;2023-09-19T04:40:00;101367.78;;;29.26
42673;BMP280;28284;46.514;30.724;2023-09-19T04:42:35;101368.47;;;29.71
42673;BMP280;28284;46.514;30.724;2023-09-19T04:45:00;101363.41;;;30.12
42673;BMP280;28284;46.514;30.724;2023-09-19T04:47:25;101367.97;;;30.56
42673;BMP280;28284;46.514;30.724;2023-09-19T04:49:51;101361.25;;;31.06
42673;BMP280;28284;46.514;30.724;2023-09-19T04:52:16;101369.19;;;31.46
42673;BMP280;28284;46.514;30.724;2023-09-19T04:54:42;101364.31;;;31.90
42673;BMP280;28284;46.514;30.724;2023-09-19T04:57:07;101357.88;;;32.22
42673;BMP280;28284;46.514;30.724;2023-09-19T04:59:32;101367.91;;;32.57
42673;BMP280;28284;46.514;30.724;2023-09-19T05:01:58;101358.84;;;32.81
42673;BMP280;28284;46.514;30.724;2023-09-19T05:04:26;101357.94;;;33.02
42673;BMP280;28284;46.514;30.724;2023-09-19T05:06:52;101349.94;;;33.11
42673;BMP280;28284;46.514;30.724;2023-09-19T05:09:18;101362.75;;;33.41
42673;BMP280;28284;46.514;30.724;2023-09-19T05:11:45;101369.16;;;33.66
42673;BMP280;28284;46.514;30.724;2023-09-19T05:14:10;101370.41;;;33.70
42673;BMP280;28284;46.514;30.724;2023-09-19T05:16:36;101370.81;;;33.80
42673;BMP280;28284;46.514;30.724;2023-09-19T05:19:01;101366.25;;;33.77
42673;BMP280;28284;46.514;30.724;2023-09-19T05:21:27;101372.31;;;33.80
42673;BMP280;28284;46.514;30.724;2023-09-19T05:23:56;101373.28;;;34.07
42673;BMP280;28284;46.514;30.724;2023-09-19T05:26:21;101373.28;;;34.30
42673;BMP280;28284;46.514;30.724;2023-09-19T05:28:46;101369.53;;;34.23
42673;BMP280;28284;46.514;30.724;2023-09-19T05:31:13;101376.22;;;34.01
42673;BMP280;28284;46.514;30.724;2023-09-19T05:33:39;101369.25;;;33.84
42673;BMP280;28284;46.514;30.724;2023-09-19T05:36:04;101366.13;;;33.64
42673;BMP280;28284;46.514;30.724;2023-09-19T05:38:30;101354.34;;;33.36
42673;BMP280;28284;46.514;30.724;2023-09-19T05:40:56;101356.34;;;33.41
42673;BMP280;28284;46.514;30.724;2023-09-19T05:43:21;101351.03;;;33.08
42673;BMP280;28284;46.514;30.724;2023-09-19T05:45:46;101348.66;;;32.78
42673;BMP280;28284;46.514;30.724;2023-09-19T05:48:12;101346.44;;;32.65
42673;BMP280;28284;46.514;30.724;2023-09-19T05:50:41;101348.59;;;32.43
42673;BMP280;28284;46.514;30.724;2023-09-19T05:53:06;101340.28;;;32.21
42673;BMP280;28284;46.514;30.724;2023-09-19T05:55:32;101350.53;;;32.02
42673;BMP280;28284;46.514;30.724;2023-09-19T05:57:58;101351.13;;;31.68
42673;BMP280;28284;46.514;30.724;2023-09-19T06:00:23;101350.88;;;31.28
42673;BMP280;28284;46.514;30.724;2023-09-19T06:02:50;101342.91;;;30.89
42673;BMP280;28284;46.514;30.724;2023-09-19T06:05:16;101345.59;;;30.56
42673;BMP280;28284;46.514;30.724;2023-09-19T06:07:41;101348.06;;;30.38
42673;BMP280;28284;46.514;30.724;2023-09-19T06:10:07;101344.44;;;30.21
42673;BMP280;28284;46.514;30.724;2023-09-19T06:12:33;101338.69;;;30.41
42673;BMP280;28284;46.514;30.724;2023-09-19T06:15:00;101340.53;;;30.60
42673;BMP280;28284;46.514;30.724;2023-09-19T06:17:25;101341.66;;;30.95
42673;BMP280;28284;46.514;30.724;2023-09-19T06:19:53;101337.38;;;31.16
42673;BMP280;28284;46.514;30.724;2023-09-19T06:22:20;101351.09;;;31.09
42673;BMP280;28284;46.514;30.724;2023-09-19T06:24:46;101357.19;;;31.02
42673;BMP280;28284;46.514;30.724;2023-09-19T06:27:12;101345.50;;;31.19
42673;BMP280;28284;46.514;30.724;2023-09-19T06:29:37;101347.03;;;31.20
42673;BMP280;28284;46.514;30.724;2023-09-19T06:32:07;101369.72;;;31.28
42673;BMP280;28284;46.514;30.724;2023-09-19T06:34:32;101355.94;;;31.52
42673;BMP280;28284;46.514;30.724;2023-09-19T06:36:58;101364.09;;;31.71
42673;BMP280;28284;46.514;30.724;2023-09-19T06:39:23;101381.69;;;31.66
42673;BMP280;28284;46.514;30.724;2023-09-19T06:41:51;101378.13;;;31.50
42673;BMP280;28284;46.514;30.724;2023-09-19T06:44:19;101360.53;;;31.33
42673;BMP280;28284;46.514;30.724;2023-09-19T06:46:49;101376.34;;;31.36
42673;BMP280;28284;46.514;30.724;2023-09-19T06:49:16;101375.53;;;31.24
42673;BMP280;28284;46.514;30.724;2023-09-19T06:51:42;101376.06;;;31.17
42673;BMP280;28284;46.514;30.724;2023-09-19T06:54:08;101374.03;;;31.12
42673;BMP280;28284;46.514;30.724;2023-09-19T06:56:33;101384.22;;;31.15
42673;BMP280;28284;46.514;30.724;2023-09-19T06:58:58;101385.69;;;31.06
42673;BMP280;28284;46.514;30.724;2023-09-19T07:01:24;101381.34;;;31.05
42673;BMP280;28284;46.514;30.724;2023-09-19T07:03:50;101374.50;;;31.06
42673;BMP280;28284;46.514;30.724;2023-09-19T07:06:15;101372.94;;;30.94
42673;BMP280;28284;46.514;30.724;2023-09-19T07:08:40;101387.47;;;31.03
42673;BMP280;28284;46.514;30.724;2023-09-19T07:11:06;101376.78;;;31.02
42673;BMP280;28284;46.514;30.724;2023-09-19T07:13:31;101400.44;;;30.95
42673;BMP280;28284;46.514;30.724;2023-09-19T07:15:58;101393.28;;;30.89
42673;BMP280;28284;46.514;30.724;2023-09-19T07:18:24;101373.94;;;30.91
42673;BMP280;28284;46.514;30.724;2023-09-19T07:20:50;101362.75;;;30.91
42673;BMP280;28284;46.514;30.724;2023-09-19T07:23:18;101376.94;;;30.71
42673;BMP280;28284;46.514;30.724;2023-09-19T07:25:47;101369.28;;;30.66
42673;BMP280;28284;46.514;30.724;2023-09-19T07:28:13;101373.66;;;30.72
42673;BMP280;28284;46.514;30.724;2023-09-19T07:30:39;101382.81;;;30.78
42673;BMP280;28284;46.514;30.724;2023-09-19T07:33:06;101395.50;;;30.68
42673;BMP280;28284;46.514;30.724;2023-09-19T07:35:32;101383.53;;;30.68
42673;BMP280;28284;46.514;30.724;2023-09-19T07:37:58;101380.47;;;30.61
42673;BMP280;28284;46.514;30.724;2023-09-19T07:40:26;101393.41;;;30.53
42673;BMP280;28284;46.514;30.724;2023-09-19T07:42:52;101380.13;;;30.42
42673;BMP280;28284;46.514;30.724;2023-09-19T07:45:17;101397.88;;;30.34
42673;BMP280;28284;46.514;30.724;2023-09-19T07:47:49;101393.09;;;30.45
42673;BMP280;28284;46.514;30.724;2023-09-19T07:50:15;101376.31;;;30.45
42673;BMP280;28284;46.514;30.724;2023-09-19T07:52:41;101389.25;;;30.37
42673;BMP280;28284;46.514;30.724;2023-09-19T07:55:07;101385.13;;;30.27
42673;BMP280;28284;46.514;30.724;2023-09-19T07:57:37;101373.16;;;30.21
42673;BMP280;28284;46.514;30.724;2023-09-19T08:00:03;101356.81;;;30.15
42673;BMP280;28284;46.514;30.724;2023-09-19T08:02:38;101372.41;;;30.26
42673;BMP280;28284;46.514;30.724;2023-09-19T08:05:03;101376.25;;;30.29
42673;BMP280;28284;46.514;30.724;2023-09-19T08:07:32;101360.97;;;30.24
42673;BMP280;28284;46.514;30.724;2023-09-19T08:09:57;101384.00;;;30.14
42673;BMP280;28284;46.514;30.724;2023-09-19T08:12:23;101358.84;;;30.09
42673;BMP280;28284;46.514;30.724;2023-09-19T08:14:48;101376.56;;;30.00
42673;BMP280;28284;46.514;30.724;2023-09-19T08:17:15;101369.66;;;29.96
42673;BMP280;28284;46.514;30.724;2023-09-19T08:19:40;101357.16;;;29.86
42673;BMP280;28284;46.514;30.724;2023-09-19T08:22:07;101356.59;;;29.82
42673;BMP280;28284;46.514;30.724;2023-09-19T08:24:35;101355.88;;;29.87
42673;BMP280;28284;46.514;30.724;2023-09-19T08:27:00;101355.16;;;29.86
42673;BMP280;28284;46.514;30.724;2023-09-19T08:29:27;101358.19;;;29.88
42673;BMP280;28284;46.514;30.724;2023-09-19T08:31:55;101355.66;;;29.90
42673;BMP280;28284;46.514;30.724;2023-09-19T08:34:22;101348.28;;;29.93
42673;BMP280;28284;46.514;30.724;2023-09-19T08:36:48;101343.00;;;29.95
42673;BMP280;28284;46.514;30.724;2023-09-19T08:39:13;101346.53;;;29.95
42673;BMP280;28284;46.514;30.724;2023-09-19T08:41:39;101356.69;;;29.93
42673;BMP280;28284;46.514;30.724;2023-09-19T08:44:05;101333.56;;;29.92
42673;BMP280;28284;46.514;30.724;2023-09-19T08:46:30;101350.25;;;29.81
42673;BMP280;28284;46.514;30.724;2023-09-19T08:49:45;101362.59;;;29.64
42673;BMP280;28284;46.514;30.724;2023-09-19T08:51:47;101344.91;;;29.47
42673;BMP280;28284;46.514;30.724;2023-09-19T08:56:43;101283.47;;;29.17
42673;BMP280;28284;46.514;30.724;2023-09-19T08:59:09;101332.47;;;29.48
42673;BMP280;28284;46.514;30.724;2023-09-19T09:01:38;101342.88;;;29.48
42673;BMP280;28284;46.514;30.724;2023-09-19T09:04:08;101323.19;;;29.31
42673;BMP280;28284;46.514;30.724;2023-09-19T09:06:34;101325.81;;;29.15
42673;BMP280;28284;46.514;30.724;2023-09-19T09:08:59;101338.06;;;28.98
42673;BMP280;28284;46.514;30.724;2023-09-19T09:11:25;101318.69;;;28.89
42673;BMP280;28284;46.514;30.724;2023-09-19T09:13:50;101332.16;;;28.90
42673;BMP280;28284;46.514;30.724;2023-09-19T09:16:16;101335.09;;;28.81
42673;BMP280;28284;46.514;30.724;2023-09-19T09:18:44;101313.13;;;28.69
42673;BMP280;28284;46.514;30.724;2023-09-19T09:21:10;101311.81;;;28.65
42673;BMP280;28284;46.514;30.724;2023-09-19T09:23:35;101320.25;;;28.50
42673;BMP280;28284;46.514;30.724;2023-09-19T09:26:01;101330.84;;;28.26
42673;BMP280;28284;46.514;30.724;2023-09-19T09:28:31;101323.34;;;28.18
42673;BMP280;28284;46.514;30.724;2023-09-19T09:30:58;101312.75;;;28.02
42673;BMP280;28284;46.514;30.724;2023-09-19T09:33:23;101308.31;;;27.96
42673;BMP280;28284;46.514;30.724;2023-09-19T09:35:52;101301.34;;;27.86
42673;BMP280;28284;46.514;30.724;2023-09-19T09:38:21;101305.88;;;27.69
42673;BMP280;28284;46.514;30.724;2023-09-19T09:40:51;101299.16;;;27.61
42673;BMP280;28284;46.514;30.724;2023-09-19T09:43:38;101302.81;;;27.53
42673;BMP280;28284;46.514;30.724;2023-09-19T09:46:23;101298.22;;;27.50
42673;BMP280;28284;46.514;30.724;2023-09-19T09:48:55;101311.38;;;27.35
42673;BMP280;28284;46.514;30.724;2023-09-19T09:51:42;101305.81;;;27.21
42673;BMP280;28284;46.514;30.724;2023-09-19T09:57:11;101302.59;;;26.99
42673;BMP280;28284;46.514;30.724;2023-09-19T09:59:46;101306.03;;;26.94
42673;BMP280;28284;46.514;30.724;2023-09-19T10:02:15;101305.47;;;26.90
42673;BMP280;28284;46.514;30.724;2023-09-19T10:04:45;101301.03;;;26.83
42673;BMP280;28284;46.514;30.724;2023-09-19T10:07:26;101295.22;;;26.72
42673;BMP280;28284;46.514;30.724;2023-09-19T10:10:01;101293.00;;;26.62
42673;BMP280;28284;46.514;30.724;2023-09-19T10:12:36;101302.66;;;26.52
42673;BMP280;28284;46.514;30.724;2023-09-19T10:15:03;101302.28;;;26.36
42673;BMP280;28284;46.514;30.724;2023-09-19T10:17:31;101300.31;;;26.27
42673;BMP280;28284;46.514;30.724;2023-09-19T10:19:59;101299.16;;;26.11
42673;BMP280;28284;46.514;30.724;2023-09-19T10:22:34;101291.50;;;25.97
42673;BMP280;28284;46.514;30.724;2023-09-19T10:25:00;101289.97;;;25.96
42673;BMP280;28284;46.514;30.724;2023-09-19T10:27:26;101306.81;;;25.92
42673;BMP280;28284;46.514;30.724;2023-09-19T10:29:51;101286.16;;;25.84
42673;BMP280;28284;46.514;30.724;2023-09-19T10:32:19;101272.44;;;25.81
42673;BMP280;28284;46.514;30.724;2023-09-19T10:34:46;101275.59;;;25.74
42673;BMP280;28284;46.514;30.724;2023-09-19T10:37:12;101277.44;;;25.68
42673;BMP280;28284;46.514;30.724;2023-09-19T10:39:37;101272.81;;;25.65
42673;BMP280;28284;46.514;30.724;2023-09-19T10:42:05;101258.66;;;25.63
42673;BMP280;28284;46.514;30.724;2023-09-19T10:44:32;101263.44;;;25.63
42673;BMP280;28284;46.514;30.724;2023-09-19T10:46:58;101251.88;;;25.55
42673;BMP280;28284;46.514;30.724;2023-09-19T10:49:24;101249.59;;;25.54
42673;BMP280;28284;46.514;30.724;2023-09-19T10:51:51;101259.91;;;25.53
42673;BMP280;28284;46.514;30.724;2023-09-19T10:54:20;101252.03;;;25.52
42673;BMP280;28284;46.514;30.724;2023-09-19T10:56:48;101263.16;;;25.43
42673;BMP280;28284;46.514;30.724;2023-09-19T10:59:17;101250.41;;;25.36
42673;BMP280;28284;46.514;30.724;2023-09-19T11:01:50;101245.16;;;25.29
42673;BMP280;28284;46.514;30.724;2023-09-19T11:07:05;101252.13;;;25.25
42673;BMP280;28284;46.514;30.724;2023-09-19T11:15:02;101229.31;;;25.21
42673;BMP280;28284;46.514;30.724;2023-09-19T11:17:37;101251.22;;;25.19
42673;BMP280;28284;46.514;30.724;2023-09-19T11:28:37;101231.34;;;25.12
42673;BMP280;28284;46.514;30.724;2023-09-19T11:30:50;101228.41;;;25.15
42673;BMP280;28284;46.514;30.724;2023-09-19T11:33:22;101210.06;;;25.17
42673;BMP280;28284;46.514;30.724;2023-09-19T11:36:03;101238.09;;;25.11
42673;BMP280;28284;46.514;30.724;2023-09-19T11:41:52;101208.50;;;25.16
42673;BMP280;28284;46.514;30.724;2023-09-19T11:46:25;101212.06;;;25.17
42673;BMP280;28284;46.514;30.724;2023-09-19T11:48:51;101218.84;;;25.16
42673;BMP280;28284;46.514;30.724;2023-09-19T11:53:55;101216.81;;;25.25
42673;BMP280;28284;46.514;30.724;2023-09-19T11:56:24;101211.75;;;25.24
42673;BMP280;28284;46.514;30.724;2023-09-19T11:58:52;101205.75;;;25.25
42673;BMP280;28284;46.514;30.724;2023-09-19T12:01:24;101200.50;;;25.27
42673;BMP280;28284;46.514;30.724;2023-09-19T12:03:54;101196.50;;;25.28
42673;BMP280;28284;46.514;30.724;2023-09-19T12:06:22;101196.78;;;25.30
42673;BMP280;28284;46.514;30.724;2023-09-19T12:08:47;101196.00;;;25.30
42673;BMP280;28284;46.514;30.724;2023-09-19T12:11:15;101187.88;;;25.26
42673;BMP280;28284;46.514;30.724;2023-09-19T12:13:42;101189.09;;;25.25
42673;BMP280;28284;46.514;30.724;2023-09-19T12:16:14;101183.53;;;25.25
42673;BMP280;28284;46.514;30.724;2023-09-19T12:18:40;101172.44;;;25.25
42673;BMP280;28284;46.514;30.724;2023-09-19T12:21:07;101178.75;;;25.26
42673;BMP280;28284;46.514;30.724;2023-09-19T12:23:37;101165.69;;;25.17
42673;BMP280;28284;46.514;30.724;2023-09-19T12:26:06;101168.47;;;25.17
42673;BMP280;28284;46.514;30.724;2023-09-19T12:28:38;101166.31;;;25.21
42673;BMP280;28284;46.514;30.724;2023-09-19T12:31:07;101164.59;;;25.24
42673;BMP280;28284;46.514;30.724;2023-09-19T12:33:33;101166.31;;;25.21
42673;BMP280;28284;46.514;30.724;2023-09-19T12:35:59;101151.81;;;25.26
42673;BMP280;28284;46.514;30.724;2023-09-19T12:38:27;101164.13;;;25.34
42673;BMP280;28284;46.514;30.724;2023-09-19T12:41:01;101152.56;;;25.27
42673;BMP280;28284;46.514;30.724;2023-09-19T12:43:28;101138.09;;;25.23
42673;BMP280;28284;46.514;30.724;2023-09-19T12:45:53;101141.03;;;25.28
42673;BMP280;28284;46.514;30.724;2023-09-19T12:53:25;101138.56;;;25.30
42673;BMP280;28284;46.514;30.724;2023-09-19T12:55:57;101123.91;;;25.30
42673;BMP280;28284;46.514;30.724;2023-09-19T12:58:23;101137.31;;;25.31
42673;BMP280;28284;46.514;30.724;2023-09-19T13:00:48;101141.16;;;25.34
42673;BMP280;28284;46.514;30.724;2023-09-19T13:03:29;101124.03;;;25.35
42673;BMP280;28284;46.514;30.724;2023-09-19T13:06:03;101113.69;;;25.36
42673;BMP280;28284;46.514;30.724;2023-09-19T13:08:33;101122.53;;;25.34
42673;BMP280;28284;46.514;30.724;2023-09-19T13:11:05;101116.66;;;25.32
42673;BMP280;28284;46.514;30.724;2023-09-19T13:13:44;101112.06;;;25.29
42673;BMP280;28284;46.514;30.724;2023-09-19T13:16:13;101125.91;;;25.29
42673;BMP280;28284;46.514;30.724;2023-09-19T13:18:45;101119.13;;;25.30
42673;BMP280;28284;46.514;30.724;2023-09-19T13:21:14;101122.19;;;25.32
42673;BMP280;28284;46.514;30.724;2023-09-19T13:23:52;101111.56;;;25.31
42673;BMP280;28284;46.514;30.724;2023-09-19T13:26:19;101116.66;;;25.32
42673;BMP280;28284;46.514;30.724;2023-09-19T13:28:45;101105.56;;;25.32
42673;BMP280;28284;46.514;30.724;2023-09-19T13:31:10;101114.53;;;25.27
42673;BMP280;28284;46.514;30.724;2023-09-19T13:33:42;101117.75;;;25.26
42673;BMP280;28284;46.514;30.724;2023-09-19T13:36:08;101111.13;;;25.23
42673;BMP280;28284;46.514;30.724;2023-09-19T13:38:34;101111.13;;;25.23
42673;BMP280;28284;46.514;30.724;2023-09-19T13:41:00;101109.44;;;25.26
42673;BMP280;28284;46.514;30.724;2023-09-19T13:43:26;101108.81;;;25.31
42673;BMP280;28284;46.514;30.724;2023-09-19T13:45:51;101102.78;;;25.32
42673;BMP280;28284;46.514;30.724;2023-09-19T13:48:17;101111.09;;;25.32
42673;BMP280;28284;46.514;30.724;2023-09-19T13:50:45;101103.72;;;25.29
42673;BMP280;28284;46.514;30.724;2023-09-19T13:53:10;101101.91;;;25.26
42673;BMP280;28284;46.514;30.724;2023-09-19T13:55:36;101094.81;;;25.25
42673;BMP280;28284;46.514;30.724;2023-09-19T13:58:03;101097.44;;;25.20
42673;BMP280;28284;46.514;30.724;2023-09-19T14:00:31;101093.94;;;25.11
42673;BMP280;28284;46.514;30.724;2023-09-19T14:02:59;101102.59;;;25.04
42673;BMP280;28284;46.514;30.724;2023-09-19T14:05:26;101089.22;;;24.93
42673;BMP280;28284;46.514;30.724;2023-09-19T14:07:53;101097.28;;;24.82
42673;BMP280;28284;46.514;30.724;2023-09-19T14:10:19;101092.34;;;24.77
42673;BMP280;28284;46.514;30.724;2023-09-19T14:12:45;101095.41;;;24.70
42673;BMP280;28284;46.514;30.724;2023-09-19T14:15:11;101086.81;;;24.68
42673;BMP280;28284;46.514;30.724;2023-09-19T14:17:39;101091.59;;;24.68
42673;BMP280;28284;46.514;30.724;2023-09-19T14:20:07;101099.13;;;24.67
42673;BMP280;28284;46.514;30.724;2023-09-19T14:22:35;101094.22;;;24.71
42673;BMP280;28284;46.514;30.724;2023-09-19T14:25:01;101096.50;;;24.73
42673;BMP280;28284;46.514;30.724;2023-09-19T14:27:27;101089.13;;;24.70
42673;BMP280;28284;46.514;30.724;2023-09-19T14:29:52;101086.81;;;24.68
42673;BMP280;28284;46.514;30.724;2023-09-19T14:32:17;101084.81;;;24.69